createdAt,value
2023-10-06T00:00:45.539Z,1.40
2023-10-06T00:03:33.314Z,1.60
2023-10-06T00:06:01.339Z,1.80
2023-10-06T00:08:34.449Z,1.60
2023-10-06T00:11:17.135Z,1.50
2023-10-06T00:14:02.367Z,1.60
2023-10-06T00:16:40.680Z,1.40
2023-10-06T00:19:34.857Z,1.20
2023-10-06T00:22:04.929Z,1.50
2023-10-06T00:24:32.997Z,1.90
2023-10-06T00:27:00.779Z,1.50
2023-10-06T00:29:30.569Z,2.10
2023-10-06T00:32:18.519Z,1.50
2023-10-06T00:34:46.588Z,1.30
2023-10-06T00:37:15.103Z,1.30
2023-10-06T00:39:44.087Z,1.50
2023-10-06T00:42:16.131Z,1.50
2023-10-06T00:44:46.754Z,1.40
2023-10-06T00:47:14.928Z,1.60
2023-10-06T00:49:44.775Z,1.60
2023-10-06T00:52:16.897Z,1.50
2023-10-06T00:54:45.164Z,1.30
2023-10-06T00:57:12.992Z,1.50
2023-10-06T00:59:42.861Z,1.50
2023-10-06T01:02:12.537Z,1.40
2023-10-06T01:04:46.878Z,1.60
2023-10-06T01:07:15.163Z,1.60
2023-10-06T01:09:42.931Z,1.50
2023-10-06T01:12:15.137Z,1.80
2023-10-06T01:14:42.878Z,1.70
2023-10-06T01:17:19.742Z,1.80
2023-10-06T01:19:50.624Z,1.80
2023-10-06T01:22:26.428Z,1.80
2023-10-06T01:24:57.162Z,1.90
2023-10-06T01:27:27.876Z,1.70
2023-10-06T01:30:15.759Z,1.60
2023-10-06T01:32:47.103Z,1.70
2023-10-06T01:35:14.959Z,2.00
2023-10-06T01:37:43.406Z,1.70
2023-10-06T01:40:17.244Z,1.60
2023-10-06T01:42:46.850Z,2.00
2023-10-06T01:45:22.495Z,1.80
2023-10-06T01:47:58.205Z,1.60
2023-10-06T01:50:28.107Z,1.70
2023-10-06T01:52:57.434Z,1.80
2023-10-06T01:55:26.015Z,1.50
2023-10-06T01:57:55.602Z,1.90
2023-10-06T02:00:28.229Z,1.70
2023-10-06T02:02:55.932Z,2.30
2023-10-06T02:05:23.964Z,2.00
2023-10-06T02:07:52.953Z,1.70
2023-10-06T02:10:21.036Z,1.90
2023-10-06T02:12:48.796Z,1.70
2023-10-06T02:15:17.784Z,2.00
2023-10-06T02:17:46.040Z,1.80
2023-10-06T02:20:30.446Z,2.20
2023-10-06T02:23:01.445Z,1.70
2023-10-06T02:25:29.642Z,2.00
2023-10-06T02:28:01.111Z,2.20
2023-10-06T02:30:35.428Z,1.90
2023-10-06T02:33:03.291Z,2.20
2023-10-06T02:35:31.070Z,2.10
2023-10-06T02:37:59.451Z,1.90
2023-10-06T02:40:45.541Z,2.10
2023-10-06T02:43:14.806Z,2.20
2023-10-06T02:45:42.564Z,2.70
2023-10-06T02:48:18.029Z,2.00
2023-10-06T02:50:46.090Z,2.30
2023-10-06T02:53:21.897Z,2.10
2023-10-06T02:55:57.233Z,2.10
2023-10-06T02:58:29.239Z,2.60
2023-10-06T03:03:29.508Z,2.80
2023-10-06T03:05:57.905Z,2.70
2023-10-06T03:08:29.368Z,2.60
2023-10-06T03:10:57.676Z,2.50
2023-10-06T03:13:37.333Z,2.50
2023-10-06T03:16:16.872Z,2.70
2023-10-06T03:18:46.006Z,2.70
2023-10-06T03:21:13.762Z,3.10
2023-10-06T03:23:45.431Z,3.00
2023-10-06T03:26:22.903Z,3.00
2023-10-06T03:28:54.451Z,3.00
2023-10-06T03:31:22.540Z,3.50
2023-10-06T03:33:50.778Z,2.90
2023-10-06T03:36:37.204Z,3.10
2023-10-06T03:39:09.318Z,2.80
2023-10-06T03:41:38.956Z,3.40
2023-10-06T03:44:06.818Z,3.30
2023-10-06T03:46:39.760Z,3.00
2023-10-06T03:49:14.841Z,3.00
2023-10-06T03:51:42.710Z,3.20
2023-10-06T03:54:10.899Z,3.60
2023-10-06T03:56:38.647Z,3.40
2023-10-06T03:59:17.116Z,3.60
2023-10-06T04:01:48.153Z,3.30
2023-10-06T04:04:17.224Z,3.30
2023-10-06T04:06:45.571Z,3.00
2023-10-06T04:09:20.436Z,3.00
2023-10-06T04:11:48.490Z,3.10
2023-10-06T04:14:16.312Z,3.30
2023-10-06T04:16:47.230Z,2.90
2023-10-06T04:19:18.219Z,3.30
2023-10-06T04:21:45.994Z,3.10
2023-10-06T04:24:14.980Z,3.40
2023-10-06T04:26:42.779Z,3.90
2023-10-06T04:29:11.043Z,3.60
2023-10-06T04:31:39.111Z,3.80
2023-10-06T04:34:06.967Z,3.70
2023-10-06T04:36:34.941Z,3.10
2023-10-06T04:39:02.701Z,3.80
2023-10-06T04:41:30.341Z,3.60
2023-10-06T04:44:03.531Z,3.80
2023-10-06T04:46:31.349Z,3.80
2023-10-06T04:48:58.976Z,4.50
2023-10-06T04:51:28.501Z,3.90
2023-10-06T04:53:56.393Z,3.70
2023-10-06T04:56:23.985Z,3.70
2023-10-06T04:58:54.248Z,4.50
2023-10-06T05:01:22.277Z,4.40
2023-10-06T05:03:49.950Z,5.00
2023-10-06T05:06:18.662Z,3.80
2023-10-06T05:08:50.673Z,4.00
2023-10-06T05:11:19.088Z,4.50
2023-10-06T05:13:50.616Z,3.70
2023-10-06T05:16:20.523Z,3.40
2023-10-06T05:18:49.139Z,3.50
2023-10-06T05:21:17.021Z,4.70
2023-10-06T05:23:46.668Z,4.10
2023-10-06T05:26:16.951Z,4.20
2023-10-06T05:28:45.807Z,3.90
2023-10-06T05:31:14.147Z,4.00
2023-10-06T05:33:42.489Z,4.10
2023-10-06T05:36:11.426Z,3.70
2023-10-06T05:38:39.551Z,4.60
2023-10-06T05:41:13.580Z,4.80
2023-10-06T05:43:42.061Z,4.70
2023-10-06T05:46:10.885Z,4.30
2023-10-06T05:48:40.095Z,4.90
2023-10-06T05:51:11.846Z,4.40
2023-10-06T05:53:40.767Z,4.80
2023-10-06T05:56:09.073Z,6.60
2023-10-06T05:58:39.370Z,5.40
2023-10-06T06:01:07.908Z,4.80
2023-10-06T06:03:36.557Z,5.10
2023-10-06T06:06:09.604Z,5.20
2023-10-06T06:08:39.134Z,4.60
2023-10-06T06:11:07.358Z,5.90
2023-10-06T06:13:35.554Z,5.30
2023-10-06T06:16:03.868Z,4.90
2023-10-06T06:18:32.234Z,5.40
2023-10-06T06:21:00.100Z,5.80
2023-10-06T06:23:27.772Z,5.40
2023-10-06T06:25:55.863Z,5.60
2023-10-06T06:28:23.913Z,5.30
2023-10-06T06:30:51.980Z,4.60
2023-10-06T06:33:21.079Z,6.00
2023-10-06T06:35:48.696Z,5.00
2023-10-06T06:38:18.837Z,4.90
2023-10-06T06:40:47.441Z,6.10
2023-10-06T06:43:15.221Z,5.30
2023-10-06T06:45:42.927Z,4.90
2023-10-06T06:48:18.509Z,5.20
2023-10-06T06:50:47.693Z,5.30
2023-10-06T06:53:15.389Z,5.40
2023-10-06T06:55:44.376Z,5.60
2023-10-06T06:58:12.899Z,5.70
2023-10-06T07:00:41.242Z,6.50
2023-10-06T07:03:09.732Z,6.10
2023-10-06T07:05:37.518Z,5.90
2023-10-06T07:08:06.450Z,5.80
2023-10-06T07:10:34.436Z,6.70
2023-10-06T07:13:02.323Z,7.20
2023-10-06T07:15:30.588Z,6.20
2023-10-06T07:17:59.150Z,6.50
2023-10-06T07:20:28.566Z,6.80
2023-10-06T07:22:57.232Z,6.60
2023-10-06T07:25:28.191Z,7.30
2023-10-06T07:27:56.688Z,6.90
2023-10-06T07:30:24.496Z,6.40
2023-10-06T07:32:58.416Z,6.60
2023-10-06T07:35:38.551Z,5.90
2023-10-06T07:38:06.400Z,7.80
2023-10-06T07:40:34.103Z,6.90
2023-10-06T07:43:04.132Z,6.70
2023-10-06T07:45:33.131Z,7.30
2023-10-06T07:48:00.937Z,6.50
2023-10-06T07:50:30.419Z,6.70
2023-10-06T07:52:58.625Z,6.40
2023-10-06T07:55:26.357Z,7.00
2023-10-06T07:57:54.738Z,6.20
2023-10-06T08:00:33.841Z,6.50
2023-10-06T08:03:01.574Z,6.30
2023-10-06T08:05:30.984Z,6.40
2023-10-06T08:08:01.981Z,6.90
2023-10-06T08:10:32.230Z,8.20
2023-10-06T08:13:03.355Z,7.10
2023-10-06T08:15:34.114Z,6.90
2023-10-06T08:18:02.151Z,6.20
2023-10-06T08:20:31.672Z,6.20
2023-10-06T08:22:59.807Z,6.40
2023-10-06T08:25:27.804Z,5.90
2023-10-06T08:27:56.251Z,6.40
2023-10-06T08:30:24.341Z,6.50
2023-10-06T08:32:55.047Z,6.90
2023-10-06T08:35:22.933Z,6.90
2023-10-06T08:37:51.335Z,6.50
2023-10-06T08:40:20.953Z,7.30
2023-10-06T08:42:52.717Z,7.70
2023-10-06T08:48:01.705Z,7.20
2023-10-06T08:50:31.817Z,7.30
2023-10-06T08:52:59.758Z,7.30
2023-10-06T08:55:29.140Z,7.20
2023-10-06T08:58:02.846Z,6.80
2023-10-06T09:00:35.793Z,7.70
2023-10-06T09:03:13.064Z,7.20
2023-10-06T09:05:40.968Z,6.50
2023-10-06T09:08:10.313Z,7.50
2023-10-06T09:10:38.341Z,7.70
2023-10-06T09:13:07.343Z,6.80
2023-10-06T09:15:36.911Z,6.70
2023-10-06T09:18:04.833Z,7.10
2023-10-06T09:20:33.335Z,6.90
2023-10-06T09:23:01.401Z,8.00
2023-10-06T09:25:29.231Z,6.70
2023-10-06T09:27:59.757Z,7.00
2023-10-06T09:30:28.035Z,8.60
2023-10-06T09:32:56.251Z,7.40
2023-10-06T09:35:24.458Z,7.60
2023-10-06T09:37:56.103Z,9.60
2023-10-06T09:40:24.211Z,7.60
2023-10-06T09:42:51.981Z,6.70
2023-10-06T09:45:19.744Z,6.90
2023-10-06T09:47:47.558Z,7.90
2023-10-06T09:50:16.018Z,7.50
2023-10-06T09:52:45.185Z,7.90
2023-10-06T09:55:13.051Z,7.30
2023-10-06T09:57:40.814Z,6.40
2023-10-06T10:00:16.861Z,5.20
2023-10-06T10:02:46.373Z,5.50
2023-10-06T10:05:14.959Z,5.70
2023-10-06T10:07:42.729Z,5.20
2023-10-06T10:10:12.352Z,5.50
2023-10-06T10:12:40.299Z,4.90
2023-10-06T10:15:13.459Z,4.40
2023-10-06T10:17:41.282Z,4.10
2023-10-06T10:20:10.992Z,5.00
2023-10-06T10:22:39.038Z,3.70
2023-10-06T10:25:24.015Z,3.90
2023-10-06T10:27:52.654Z,4.00
2023-10-06T10:30:20.334Z,3.90
2023-10-06T10:32:47.957Z,4.30
2023-10-06T10:35:15.736Z,4.20
2023-10-06T10:37:43.748Z,3.90
2023-10-06T10:40:13.876Z,4.80
2023-10-06T10:42:42.144Z,4.40
2023-10-06T10:45:09.906Z,3.90
2023-10-06T10:47:38.364Z,5.00
2023-10-06T10:50:06.770Z,3.40
2023-10-06T10:52:35.035Z,4.30
2023-10-06T10:55:02.680Z,5.20
2023-10-06T10:57:30.305Z,4.00
2023-10-06T10:59:57.898Z,4.00
2023-10-06T11:02:25.819Z,4.00
2023-10-06T11:04:53.510Z,3.70
2023-10-06T11:07:21.154Z,3.60
2023-10-06T11:09:48.801Z,4.10
2023-10-06T11:14:51.131Z,3.70
2023-10-06T11:17:19.168Z,3.20
2023-10-06T11:19:46.901Z,3.70
2023-10-06T11:22:15.022Z,2.90
2023-10-06T11:24:44.586Z,3.00
2023-10-06T11:27:13.188Z,3.10
2023-10-06T11:29:41.131Z,2.80
2023-10-06T11:32:09.017Z,2.80
2023-10-06T11:34:36.970Z,3.10
2023-10-06T11:37:06.520Z,3.00
2023-10-06T11:39:34.185Z,2.90
2023-10-06T11:42:04.946Z,2.90
2023-10-06T11:44:36.653Z,2.30
2023-10-06T11:47:05.503Z,2.50
2023-10-06T11:49:34.828Z,2.90
2023-10-06T11:52:02.461Z,2.70
2023-10-06T11:54:30.933Z,2.80
2023-10-06T11:56:58.510Z,2.70
2023-10-06T11:59:26.112Z,2.70
2023-10-06T12:01:54.364Z,3.00
2023-10-06T12:04:22.196Z,2.60
2023-10-06T12:06:52.232Z,2.70
2023-10-06T12:09:19.833Z,2.50
2023-10-06T12:11:47.497Z,2.70
2023-10-06T12:14:15.284Z,2.40
2023-10-06T12:16:46.322Z,2.20
2023-10-06T12:19:15.230Z,2.60
2023-10-06T12:21:42.950Z,2.90
2023-10-06T12:24:12.975Z,2.10
2023-10-06T12:26:41.015Z,2.60
2023-10-06T12:29:08.684Z,2.60
2023-10-06T12:31:36.369Z,2.60
2023-10-06T12:34:05.492Z,2.10
2023-10-06T12:36:33.352Z,2.30
2023-10-06T12:39:01.006Z,1.80
2023-10-06T12:41:28.768Z,2.00
2023-10-06T12:44:03.685Z,1.50
2023-10-06T12:46:34.886Z,1.70
2023-10-06T12:49:06.494Z,1.90
2023-10-06T12:51:34.114Z,2.00
2023-10-06T12:54:01.722Z,1.70
2023-10-06T12:56:32.744Z,1.90
2023-10-06T12:59:00.476Z,1.80
2023-10-06T13:01:32.111Z,1.90
2023-10-06T13:04:00.737Z,2.10
2023-10-06T13:06:31.241Z,2.20
2023-10-06T13:09:03.201Z,2.10
2023-10-06T13:11:30.841Z,2.00
2023-10-06T13:13:58.842Z,2.40
2023-10-06T13:16:26.581Z,2.10
2023-10-06T13:18:54.242Z,1.80
2023-10-06T13:21:21.864Z,2.00
2023-10-06T13:23:49.553Z,2.40
2023-10-06T13:26:35.751Z,2.20
2023-10-06T13:29:07.902Z,2.10
2023-10-06T13:31:35.586Z,2.20
2023-10-06T13:34:03.909Z,1.60
2023-10-06T13:36:32.267Z,1.90
2023-10-06T13:38:59.862Z,1.70
2023-10-06T13:41:27.827Z,1.80
2023-10-06T13:43:55.765Z,2.20
2023-10-06T13:46:24.956Z,1.80
2023-10-06T13:48:52.641Z,2.20
2023-10-06T13:51:20.423Z,2.10
2023-10-06T13:53:48.004Z,2.10
2023-10-06T13:56:15.694Z,2.40
2023-10-06T13:58:43.329Z,2.40
2023-10-06T14:01:13.029Z,1.90
2023-10-06T14:03:40.829Z,1.80
2023-10-06T14:06:09.145Z,2.20
2023-10-06T14:08:37.224Z,2.40
2023-10-06T14:11:05.123Z,2.40
2023-10-06T14:13:34.987Z,2.10
2023-10-06T14:16:10.704Z,2.30
2023-10-06T14:18:40.305Z,2.50
2023-10-06T14:21:08.014Z,2.10
2023-10-06T14:23:37.340Z,2.50
2023-10-06T14:26:10.737Z,1.80
2023-10-06T14:28:38.490Z,2.20
2023-10-06T14:31:25.311Z,2.20
2023-10-06T14:34:19.473Z,2.00
2023-10-06T14:36:47.988Z,2.10
2023-10-06T14:39:34.563Z,2.00
2023-10-06T14:42:02.170Z,2.10
2023-10-06T14:44:48.499Z,1.90
2023-10-06T14:47:16.710Z,2.20
2023-10-06T14:49:45.499Z,1.70
2023-10-06T14:52:14.450Z,2.00
2023-10-06T14:54:42.350Z,2.60
2023-10-06T14:57:10.005Z,3.10
2023-10-06T14:59:38.552Z,1.80
2023-10-06T15:02:11.880Z,2.20
2023-10-06T15:04:40.681Z,2.00
2023-10-06T15:07:10.392Z,2.00
2023-10-06T15:09:39.847Z,2.30
2023-10-06T15:12:07.900Z,2.30
2023-10-06T15:14:38.024Z,1.70
2023-10-06T15:17:06.536Z,2.50
2023-10-06T15:19:37.858Z,2.20
2023-10-06T15:22:09.939Z,2.00
2023-10-06T15:24:38.854Z,1.90
2023-10-06T15:27:08.269Z,2.20
2023-10-06T15:29:36.247Z,2.30
2023-10-06T15:32:06.626Z,2.40
2023-10-06T15:34:36.708Z,8.20
2023-10-06T15:37:06.032Z,12.60
2023-10-06T15:39:34.067Z,3.70
2023-10-06T15:42:02.547Z,5.70
2023-10-06T15:44:30.270Z,5.90
2023-10-06T15:46:58.501Z,6.00
2023-10-06T15:49:26.928Z,8.80
2023-10-06T15:51:54.642Z,11.80
2023-10-06T15:54:23.601Z,22.40
2023-10-06T15:56:52.179Z,15.70
2023-10-06T15:59:21.743Z,7.30
2023-10-06T16:01:50.355Z,5.10
2023-10-06T16:04:19.257Z,4.40
2023-10-06T16:06:48.156Z,4.10
2023-10-06T16:09:19.124Z,3.20
2023-10-06T16:11:47.578Z,4.10
2023-10-06T16:14:17.753Z,4.30
2023-10-06T16:16:47.420Z,9.50
2023-10-06T16:19:15.841Z,112.90
2023-10-06T16:21:43.784Z,86.00
2023-10-06T16:24:13.724Z,93.50
2023-10-06T16:26:42.286Z,87.70
2023-10-06T16:29:11.718Z,42.70
2023-10-06T16:31:39.722Z,23.00
2023-10-06T16:34:07.769Z,11.20
2023-10-06T16:36:36.349Z,9.70
2023-10-06T16:39:17.559Z,10.90
2023-10-06T16:41:46.396Z,12.50
2023-10-06T16:44:16.371Z,9.70
2023-10-06T16:46:44.366Z,9.90
2023-10-06T16:49:12.185Z,12.40
2023-10-06T16:51:40.944Z,12.20
2023-10-06T16:54:11.331Z,13.00
2023-10-06T16:56:39.512Z,9.70
2023-10-06T16:59:07.769Z,9.50
2023-10-06T17:01:36.117Z,9.90
2023-10-06T17:04:07.831Z,11.30
2023-10-06T17:09:15.234Z,110.40
2023-10-06T17:11:44.736Z,24.30
2023-10-06T17:14:13.228Z,10.80
2023-10-06T17:16:44.434Z,9.40
2023-10-06T17:19:13.823Z,9.40
2023-10-06T17:21:43.929Z,10.60
2023-10-06T17:24:12.636Z,9.30
2023-10-06T17:26:41.250Z,10.10
2023-10-06T17:29:09.861Z,7.30
2023-10-06T17:31:38.074Z,7.40
2023-10-06T17:34:10.712Z,8.40
2023-10-06T17:36:40.372Z,9.60
2023-10-06T17:39:13.135Z,11.40
2023-10-06T17:41:41.650Z,11.70
2023-10-06T17:44:10.615Z,11.10
2023-10-06T17:46:39.559Z,11.70
2023-10-06T17:49:12.065Z,11.90
2023-10-06T17:51:42.270Z,11.70
2023-10-06T17:54:11.942Z,54.20
2023-10-06T17:56:45.322Z,42.90
2023-10-06T17:59:16.945Z,25.50
2023-10-06T18:01:44.929Z,22.60
2023-10-06T18:04:13.879Z,28.90
2023-10-06T18:06:41.626Z,28.10
2023-10-06T18:09:10.332Z,56.50
2023-10-06T18:11:38.133Z,34.00
2023-10-06T18:14:05.765Z,19.70
2023-10-06T18:16:33.609Z,18.00
2023-10-06T18:19:01.956Z,21.40
2023-10-06T18:21:31.451Z,21.00
2023-10-06T18:24:00.737Z,17.40
2023-10-06T18:26:29.035Z,17.00
2023-10-06T18:28:56.730Z,22.90
2023-10-06T18:31:26.526Z,19.20
2023-10-06T18:33:54.382Z,29.30
2023-10-06T18:36:22.252Z,25.20
2023-10-06T18:38:51.758Z,14.60
2023-10-06T18:41:19.423Z,14.30
2023-10-06T18:43:47.106Z,15.90
2023-10-06T18:46:15.907Z,15.30
2023-10-06T18:48:43.835Z,13.90
2023-10-06T18:51:12.451Z,13.20
2023-10-06T18:53:45.463Z,13.40
2023-10-06T18:56:14.924Z,13.10
2023-10-06T18:58:42.712Z,12.30
2023-10-06T19:01:10.591Z,11.80
2023-10-06T19:03:39.723Z,12.70
2023-10-06T19:06:08.576Z,12.60
2023-10-06T19:08:46.049Z,12.70
2023-10-06T19:11:15.432Z,11.40
2023-10-06T19:13:43.225Z,12.10
2023-10-06T19:16:11.613Z,13.80
2023-10-06T19:18:40.014Z,11.90
2023-10-06T19:21:08.021Z,13.40
2023-10-06T19:23:36.763Z,13.00
2023-10-06T19:26:06.552Z,13.10
2023-10-06T19:28:34.570Z,12.90
2023-10-06T19:31:02.421Z,13.00
2023-10-06T19:33:30.071Z,12.30
2023-10-06T19:35:57.752Z,13.20
2023-10-06T19:38:25.467Z,12.00
2023-10-06T19:40:53.263Z,11.30
2023-10-06T19:43:22.503Z,11.10
2023-10-06T19:45:53.049Z,12.80
2023-10-06T19:48:21.658Z,11.60
2023-10-06T19:50:51.897Z,11.40
2023-10-06T19:53:24.832Z,11.20
2023-10-06T19:55:54.488Z,10.60
2023-10-06T19:58:26.021Z,10.90
2023-10-06T20:00:53.826Z,10.70
2023-10-06T20:03:21.677Z,11.00
2023-10-06T20:05:50.863Z,11.30
2023-10-06T20:08:21.194Z,11.40
2023-10-06T20:10:49.903Z,12.10
2023-10-06T20:13:17.722Z,10.50
2023-10-06T20:15:51.546Z,11.50
2023-10-06T20:18:21.988Z,12.10
2023-10-06T20:20:53.795Z,12.20
2023-10-06T20:23:23.039Z,11.80
2023-10-06T20:25:54.110Z,13.30
2023-10-06T20:28:23.228Z,13.60
2023-10-06T20:30:51.695Z,12.80
2023-10-06T20:33:19.710Z,13.20
2023-10-06T20:35:48.324Z,12.00
2023-10-06T20:38:18.200Z,12.40
2023-10-06T20:40:47.784Z,11.40
2023-10-06T20:43:16.313Z,10.80
2023-10-06T20:45:48.027Z,10.00
2023-10-06T20:48:16.564Z,10.20
2023-10-06T20:50:44.393Z,10.40
2023-10-06T20:53:12.237Z,10.00
2023-10-06T20:55:40.028Z,9.50
2023-10-06T20:58:07.968Z,8.70
2023-10-06T21:00:35.666Z,10.00
2023-10-06T21:03:03.642Z,9.90
2023-10-06T21:05:31.675Z,9.50
2023-10-06T21:07:59.664Z,10.10
2023-10-06T21:10:27.715Z,9.30
2023-10-06T21:12:55.545Z,8.90
2023-10-06T21:15:25.001Z,8.70
2023-10-06T21:17:56.082Z,8.60
2023-10-06T21:20:24.507Z,9.20
2023-10-06T21:22:52.626Z,8.20
2023-10-06T21:25:20.402Z,8.50
2023-10-06T21:27:48.170Z,8.40
2023-10-06T21:30:18.893Z,7.80
2023-10-06T21:32:46.881Z,8.60
2023-10-06T21:35:16.035Z,8.50
2023-10-06T21:37:45.998Z,8.60
2023-10-06T21:40:14.493Z,8.70
2023-10-06T21:42:42.523Z,7.80
2023-10-06T21:45:10.567Z,8.20
2023-10-06T21:47:38.524Z,8.00
2023-10-06T21:50:06.384Z,6.70
2023-10-06T21:52:34.148Z,7.30
2023-10-06T21:55:02.039Z,7.30
2023-10-06T21:57:36.151Z,7.20
2023-10-06T22:00:12.704Z,7.10
2023-10-06T22:02:42.525Z,6.70
2023-10-06T22:05:11.737Z,6.40
2023-10-06T22:07:41.221Z,6.60
2023-10-06T22:10:10.410Z,6.60
2023-10-06T22:12:38.786Z,6.20
2023-10-06T22:15:06.458Z,7.40
2023-10-06T22:17:36.180Z,6.60
2023-10-06T22:20:04.662Z,6.90
2023-10-06T22:22:33.487Z,7.90
2023-10-06T22:25:01.513Z,7.30
2023-10-06T22:27:30.432Z,5.50
2023-10-06T22:30:00.994Z,6.70
2023-10-06T22:32:28.983Z,6.20
2023-10-06T22:34:56.891Z,6.00
2023-10-06T22:37:27.214Z,6.00
2023-10-06T22:39:56.456Z,5.80
2023-10-06T22:42:24.054Z,5.90
2023-10-06T22:44:53.451Z,5.30
2023-10-06T22:47:22.330Z,5.60
2023-10-06T22:49:51.998Z,5.80
2023-10-06T22:52:19.821Z,5.20
2023-10-06T22:54:47.574Z,5.90
2023-10-06T22:57:15.339Z,5.50
2023-10-06T22:59:43.104Z,5.70
2023-10-06T23:02:11.235Z,6.00
2023-10-06T23:04:39.085Z,5.80
2023-10-06T23:07:06.809Z,6.00
2023-10-06T23:09:36.716Z,6.00
2023-10-06T23:12:06.054Z,5.80
2023-10-06T23:14:33.897Z,5.70
2023-10-06T23:17:05.711Z,4.90
2023-10-06T23:22:03.485Z,4.50
2023-10-06T23:24:49.271Z,5.00
2023-10-06T23:27:17.900Z,4.60
2023-10-06T23:29:45.738Z,4.80
2023-10-06T23:32:13.712Z,4.90
2023-10-06T23:34:43.526Z,4.40
2023-10-06T23:37:13.873Z,4.80
2023-10-06T23:39:41.634Z,4.30
2023-10-06T23:42:20.662Z,5.00
2023-10-06T23:44:49.273Z,4.40
2023-10-06T23:47:20.021Z,4.50
2023-10-06T23:49:47.980Z,4.80
2023-10-06T23:52:15.918Z,3.70
2023-10-06T23:54:43.682Z,3.90
2023-10-06T23:57:17.502Z,4.70
2023-10-06T23:59:49.416Z,4.20
